This is the latest recevied weather packets stored in our database for station/object R1CBW-13. If no packets are shown the sender has not sent any weather packets the latest 10 day(s).
| Time | Temp. | Humidity | Pressure | Rain* | Wind** | Luminosity | Snow |
|---|---|---|---|---|---|---|---|
| 1777616136 | 10° C | 58% | 1019.9 hPa | 0 mm | - | - | - |
| 1777616076 | 10.56° C | 56% | 1019.9 hPa | 0 mm | - | - | - |
| 1777616016 | 10.56° C | 55% | 1019.9 hPa | 0 mm | - | - | - |
| 1777615956 | 11.11° C | 55% | 1019.9 hPa | 0 mm | - | - | - |
| 1777615896 | 10.56° C | 56% | 1019.9 hPa | 0 mm | - | - | - |
| 1777615836 | 10.56° C | 56% | 1019.8 hPa | 0 mm | - | - | - |
| 1777615776 | 10.56° C | 56% | 1019.8 hPa | 0 mm | - | - | - |
| 1777615716 | 11.11° C | 55% | 1019.8 hPa | 0 mm | - | - | - |
| 1777615656 | 10.56° C | 56% | 1019.8 hPa | 0 mm | - | - | - |
| 1777615596 | 10.56° C | 56% | 1019.8 hPa | 0 mm | - | - | - |
| 1777615536 | 10.56° C | 55% | 1019.8 hPa | 0 mm | - | - | - |
| 1777615476 | 10.56° C | 56% | 1019.8 hPa | 0 mm | - | - | - |
| 1777615416 | 10.56° C | 58% | 1019.8 hPa | 0 mm | - | - | - |
| 1777615356 | 10.56° C | 59% | 1019.9 hPa | 0 mm | - | - | - |
| 1777615296 | 9.44° C | 61% | 1019.9 hPa | 0 mm | - | - | - |
| 1777615236 | 10° C | 60% | 1019.9 hPa | 0 mm | - | - | - |
| 1777615176 | 10° C | 60% | 1019.8 hPa | 0 mm | - | - | - |
| 1777615116 | 9.44° C | 61% | 1019.9 hPa | 0 mm | - | - | - |
| 1777615056 | 10.56° C | 57% | 1019.8 hPa | 0 mm | - | - | - |
| 1777614996 | 10.56° C | 58% | 1019.8 hPa | 0 mm | - | - | - |
| 1777614936 | 10.56° C | 57% | 1019.8 hPa | 0 mm | - | - | - |
| 1777614876 | 10.56° C | 58% | 1019.8 hPa | 0 mm | - | - | - |
| 1777614815 | 10° C | 58% | 1019.8 hPa | 0 mm | - | - | - |
| 1777614756 | 10° C | 60% | 1019.8 hPa | 0 mm | - | - | - |
| 1777614696 | 10° C | 59% | 1019.9 hPa | 0 mm | - | - | - |
* Rain latest hour (hover to see other rain measurements)
** Current wind speed in m/s (hover to see current wind gust speed)